sensor_id;sensor_type;location;lat;lon;timestamp;temperature;humidity
4209;DHT22;36320;48.860;2.380;2022-09-01T00:01:16;24.10;58.20
4209;DHT22;36320;48.860;2.380;2022-09-01T00:03:52;24.10;58.30
4209;DHT22;36320;48.860;2.380;2022-09-01T00:06:22;24.10;58.50
4209;DHT22;36320;48.860;2.380;2022-09-01T00:11:15;24.10;58.40
4209;DHT22;36320;48.860;2.380;2022-09-01T00:13:41;23.90;58.50
4209;DHT22;36320;48.860;2.380;2022-09-01T00:16:07;24.00;58.60
4209;DHT22;36320;48.860;2.380;2022-09-01T00:18:34;24.00;58.70
4209;DHT22;36320;48.860;2.380;2022-09-01T00:21:01;23.90;58.70
4209;DHT22;36320;48.860;2.380;2022-09-01T00:23:27;23.90;58.70
4209;DHT22;36320;48.860;2.380;2022-09-01T00:25:54;24.00;58.90
4209;DHT22;36320;48.860;2.380;2022-09-01T00:28:20;23.80;59.00
4209;DHT22;36320;48.860;2.380;2022-09-01T00:30:47;23.80;59.30
4209;DHT22;36320;48.860;2.380;2022-09-01T00:33:12;23.80;59.30
4209;DHT22;36320;48.860;2.380;2022-09-01T00:35:38;23.80;59.30
4209;DHT22;36320;48.860;2.380;2022-09-01T00:38:04;23.80;59.50
4209;DHT22;36320;48.860;2.380;2022-09-01T00:40:30;23.80;59.50
4209;DHT22;36320;48.860;2.380;2022-09-01T00:42:56;23.80;59.60
4209;DHT22;36320;48.860;2.380;2022-09-01T00:45:22;23.80;59.50
4209;DHT22;36320;48.860;2.380;2022-09-01T00:47:48;23.80;59.50
4209;DHT22;36320;48.860;2.380;2022-09-01T00:50:16;23.70;59.80
4209;DHT22;36320;48.860;2.380;2022-09-01T00:52:49;23.60;59.90
4209;DHT22;36320;48.860;2.380;2022-09-01T00:55:24;23.60;60.00
4209;DHT22;36320;48.860;2.380;2022-09-01T00:57:51;23.70;59.90
4209;DHT22;36320;48.860;2.380;2022-09-01T01:00:22;23.80;59.80
4209;DHT22;36320;48.860;2.380;2022-09-01T01:02:49;23.70;59.80
4209;DHT22;36320;48.860;2.380;2022-09-01T01:05:20;23.70;59.90
4209;DHT22;36320;48.860;2.380;2022-09-01T01:07:48;23.80;60.00
4209;DHT22;36320;48.860;2.380;2022-09-01T01:10:16;23.80;60.00
4209;DHT22;36320;48.860;2.380;2022-09-01T01:12:43;23.60;60.10
4209;DHT22;36320;48.860;2.380;2022-09-01T01:15:13;23.70;61.00
4209;DHT22;36320;48.860;2.380;2022-09-01T01:17:40;23.70;60.40
4209;DHT22;36320;48.860;2.380;2022-09-01T01:20:07;23.60;60.30
4209;DHT22;36320;48.860;2.380;2022-09-01T01:28:17;23.70;60.80
4209;DHT22;36320;48.860;2.380;2022-09-01T01:30:53;23.60;60.80
4209;DHT22;36320;48.860;2.380;2022-09-01T01:33:25;23.60;60.90
4209;DHT22;36320;48.860;2.380;2022-09-01T01:35:52;23.60;61.10
4209;DHT22;36320;48.860;2.380;2022-09-01T01:38:19;23.60;61.10
4209;DHT22;36320;48.860;2.380;2022-09-01T01:40:48;23.50;61.20
4209;DHT22;36320;48.860;2.380;2022-09-01T01:43:14;23.30;61.70
4209;DHT22;36320;48.860;2.380;2022-09-01T01:45:51;23.20;62.20
4209;DHT22;36320;48.860;2.380;2022-09-01T01:48:20;23.30;62.20
4209;DHT22;36320;48.860;2.380;2022-09-01T01:50:50;23.30;62.80
4209;DHT22;36320;48.860;2.380;2022-09-01T01:53:16;23.40;61.90
4209;DHT22;36320;48.860;2.380;2022-09-01T01:55:45;23.50;61.80
4209;DHT22;36320;48.860;2.380;2022-09-01T01:58:15;23.50;61.90
4209;DHT22;36320;48.860;2.380;2022-09-01T02:00:42;23.50;61.80
4209;DHT22;36320;48.860;2.380;2022-09-01T02:03:09;23.40;62.10
4209;DHT22;36320;48.860;2.380;2022-09-01T02:05:38;23.30;62.60
4209;DHT22;36320;48.860;2.380;2022-09-01T02:08:09;23.20;62.80
4209;DHT22;36320;48.860;2.380;2022-09-01T02:10:39;23.20;62.70
4209;DHT22;36320;48.860;2.380;2022-09-01T02:13:07;23.20;62.60
4209;DHT22;36320;48.860;2.380;2022-09-01T02:15:40;23.20;62.90
4209;DHT22;36320;48.860;2.380;2022-09-01T02:18:18;23.30;62.90
4209;DHT22;36320;48.860;2.380;2022-09-01T02:20:46;23.20;63.00
4209;DHT22;36320;48.860;2.380;2022-09-01T02:23:12;23.00;63.50
4209;DHT22;36320;48.860;2.380;2022-09-01T02:25:42;23.00;63.70
4209;DHT22;36320;48.860;2.380;2022-09-01T02:28:13;23.10;63.70
4209;DHT22;36320;48.860;2.380;2022-09-01T02:30:49;23.20;63.70
4209;DHT22;36320;48.860;2.380;2022-09-01T02:33:24;23.20;63.60
4209;DHT22;36320;48.860;2.380;2022-09-01T02:35:56;23.10;63.90
4209;DHT22;36320;48.860;2.380;2022-09-01T02:38:23;23.00;64.10
4209;DHT22;36320;48.860;2.380;2022-09-01T02:40:51;23.10;64.00
4209;DHT22;36320;48.860;2.380;2022-09-01T02:43:19;23.10;64.00
4209;DHT22;36320;48.860;2.380;2022-09-01T02:45:46;23.20;63.70
4209;DHT22;36320;48.860;2.380;2022-09-01T02:48:12;23.20;63.70
4209;DHT22;36320;48.860;2.380;2022-09-01T02:50:40;23.10;64.00
4209;DHT22;36320;48.860;2.380;2022-09-01T02:53:07;23.00;64.30
4209;DHT22;36320;48.860;2.380;2022-09-01T02:55:40;23.00;64.40
4209;DHT22;36320;48.860;2.380;2022-09-01T02:58:06;23.00;64.50
4209;DHT22;36320;48.860;2.380;2022-09-01T03:00:45;23.00;64.70
4209;DHT22;36320;48.860;2.380;2022-09-01T03:03:17;23.20;64.30
4209;DHT22;36320;48.860;2.380;2022-09-01T03:05:44;23.30;64.00
4209;DHT22;36320;48.860;2.380;2022-09-01T03:08:11;23.40;63.60
4209;DHT22;36320;48.860;2.380;2022-09-01T03:10:42;23.40;63.40
4209;DHT22;36320;48.860;2.380;2022-09-01T03:13:17;23.30;63.80
4209;DHT22;36320;48.860;2.380;2022-09-01T03:15:43;23.40;63.70
4209;DHT22;36320;48.860;2.380;2022-09-01T03:18:10;23.40;64.30
4209;DHT22;36320;48.860;2.380;2022-09-01T03:20:39;23.50;63.60
4209;DHT22;36320;48.860;2.380;2022-09-01T03:23:09;23.40;63.30
4209;DHT22;36320;48.860;2.380;2022-09-01T03:25:36;23.40;63.40
4209;DHT22;36320;48.860;2.380;2022-09-01T03:28:02;23.40;63.30
4209;DHT22;36320;48.860;2.380;2022-09-01T03:30:30;23.40;63.40
4209;DHT22;36320;48.860;2.380;2022-09-01T03:32:57;23.30;63.30
4209;DHT22;36320;48.860;2.380;2022-09-01T03:35:25;23.30;64.30
4209;DHT22;36320;48.860;2.380;2022-09-01T03:37:54;23.30;63.60
4209;DHT22;36320;48.860;2.380;2022-09-01T03:40:25;23.30;63.40
4209;DHT22;36320;48.860;2.380;2022-09-01T03:43:00;23.40;63.40
4209;DHT22;36320;48.860;2.380;2022-09-01T03:45:28;23.30;63.30
4209;DHT22;36320;48.860;2.380;2022-09-01T03:47:55;23.30;63.40
4209;DHT22;36320;48.860;2.380;2022-09-01T03:50:23;23.20;63.40
4209;DHT22;36320;48.860;2.380;2022-09-01T03:52:57;23.30;63.40
4209;DHT22;36320;48.860;2.380;2022-09-01T03:55:27;23.40;63.40
4209;DHT22;36320;48.860;2.380;2022-09-01T03:57:57;23.30;63.20
4209;DHT22;36320;48.860;2.380;2022-09-01T04:00:24;23.30;63.40
4209;DHT22;36320;48.860;2.380;2022-09-01T04:02:55;23.20;63.50
4209;DHT22;36320;48.860;2.380;2022-09-01T04:05:27;23.20;63.70
4209;DHT22;36320;48.860;2.380;2022-09-01T04:07:55;23.30;63.60
4209;DHT22;36320;48.860;2.380;2022-09-01T04:10:22;23.20;63.50
4209;DHT22;36320;48.860;2.380;2022-09-01T04:12:48;23.20;63.70
4209;DHT22;36320;48.860;2.380;2022-09-01T04:15:15;23.30;63.50
4209;DHT22;36320;48.860;2.380;2022-09-01T04:17:43;23.40;63.30
4209;DHT22;36320;48.860;2.380;2022-09-01T04:20:27;23.30;63.20
4209;DHT22;36320;48.860;2.380;2022-09-01T04:22:54;23.40;63.10
4209;DHT22;36320;48.860;2.380;2022-09-01T04:25:21;23.40;63.00
4209;DHT22;36320;48.860;2.380;2022-09-01T04:27:49;23.40;63.00
4209;DHT22;36320;48.860;2.380;2022-09-01T04:30:15;23.40;63.00
4209;DHT22;36320;48.860;2.380;2022-09-01T04:32:41;23.40;62.90
4209;DHT22;36320;48.860;2.380;2022-09-01T04:35:08;23.50;63.00
4209;DHT22;36320;48.860;2.380;2022-09-01T04:37:41;23.40;62.80
4209;DHT22;36320;48.860;2.380;2022-09-01T04:40:09;23.40;63.10
4209;DHT22;36320;48.860;2.380;2022-09-01T04:42:35;23.40;63.40
4209;DHT22;36320;48.860;2.380;2022-09-01T04:45:01;23.40;63.50
4209;DHT22;36320;48.860;2.380;2022-09-01T04:47:27;23.40;63.70
4209;DHT22;36320;48.860;2.380;2022-09-01T04:49:57;23.40;64.00
4209;DHT22;36320;48.860;2.380;2022-09-01T04:52:25;23.40;64.00
4209;DHT22;36320;48.860;2.380;2022-09-01T04:54:51;23.40;64.00
4209;DHT22;36320;48.860;2.380;2022-09-01T04:57:19;23.40;64.10
4209;DHT22;36320;48.860;2.380;2022-09-01T04:59:45;23.40;64.20
4209;DHT22;36320;48.860;2.380;2022-09-01T05:02:11;23.40;64.00
4209;DHT22;36320;48.860;2.380;2022-09-01T05:04:38;23.10;63.80
4209;DHT22;36320;48.860;2.380;2022-09-01T05:07:09;23.30;64.00
4209;DHT22;36320;48.860;2.380;2022-09-01T05:09:36;23.40;64.00
4209;DHT22;36320;48.860;2.380;2022-09-01T05:12:03;23.40;63.90
4209;DHT22;36320;48.860;2.380;2022-09-01T05:14:40;23.30;63.80
4209;DHT22;36320;48.860;2.380;2022-09-01T05:17:08;23.30;63.70
4209;DHT22;36320;48.860;2.380;2022-09-01T05:19:40;23.40;63.80
4209;DHT22;36320;48.860;2.380;2022-09-01T05:22:08;23.40;63.90
4209;DHT22;36320;48.860;2.380;2022-09-01T05:24:36;23.40;63.70
4209;DHT22;36320;48.860;2.380;2022-09-01T05:27:06;23.40;63.70
4209;DHT22;36320;48.860;2.380;2022-09-01T05:29:32;23.30;63.70
4209;DHT22;36320;48.860;2.380;2022-09-01T05:31:59;23.30;63.50
4209;DHT22;36320;48.860;2.380;2022-09-01T05:34:25;23.40;63.40
4209;DHT22;36320;48.860;2.380;2022-09-01T05:36:53;23.40;62.90
4209;DHT22;36320;48.860;2.380;2022-09-01T05:39:20;23.40;63.20
4209;DHT22;36320;48.860;2.380;2022-09-01T05:41:46;23.40;63.10
4209;DHT22;36320;48.860;2.380;2022-09-01T05:44:14;23.50;63.00
4209;DHT22;36320;48.860;2.380;2022-09-01T05:46:41;23.50;62.70
4209;DHT22;36320;48.860;2.380;2022-09-01T05:49:10;23.50;62.60
4209;DHT22;36320;48.860;2.380;2022-09-01T05:51:46;23.50;62.50
4209;DHT22;36320;48.860;2.380;2022-09-01T05:54:18;23.60;62.50
4209;DHT22;36320;48.860;2.380;2022-09-01T05:56:48;23.60;62.30
4209;DHT22;36320;48.860;2.380;2022-09-01T05:59:14;23.70;62.10
4209;DHT22;36320;48.860;2.380;2022-09-01T06:01:40;23.70;61.90
4209;DHT22;36320;48.860;2.380;2022-09-01T06:04:08;23.60;61.50
4209;DHT22;36320;48.860;2.380;2022-09-01T06:06:38;23.60;61.60
4209;DHT22;36320;48.860;2.380;2022-09-01T06:09:06;23.60;61.40
4209;DHT22;36320;48.860;2.380;2022-09-01T06:11:33;23.60;61.30
4209;DHT22;36320;48.860;2.380;2022-09-01T06:13:59;23.60;61.30
4209;DHT22;36320;48.860;2.380;2022-09-01T06:16:26;23.60;61.20
4209;DHT22;36320;48.860;2.380;2022-09-01T06:18:54;23.60;61.20
4209;DHT22;36320;48.860;2.380;2022-09-01T06:21:23;23.70;61.20
4209;DHT22;36320;48.860;2.380;2022-09-01T06:23:50;23.70;60.90
4209;DHT22;36320;48.860;2.380;2022-09-01T06:28:49;23.80;60.80
4209;DHT22;36320;48.860;2.380;2022-09-01T06:31:28;23.80;60.60
4209;DHT22;36320;48.860;2.380;2022-09-01T06:34:01;23.90;60.50
4209;DHT22;36320;48.860;2.380;2022-09-01T06:36:28;23.90;60.30
4209;DHT22;36320;48.860;2.380;2022-09-01T06:38:58;23.90;60.20
4209;DHT22;36320;48.860;2.380;2022-09-01T06:41:28;24.00;60.00
4209;DHT22;36320;48.860;2.380;2022-09-01T06:43:55;24.00;60.00
4209;DHT22;36320;48.860;2.380;2022-09-01T06:46:22;24.00;60.00
4209;DHT22;36320;48.860;2.380;2022-09-01T06:48:54;24.00;60.00
4209;DHT22;36320;48.860;2.380;2022-09-01T06:51:24;24.10;60.00
4209;DHT22;36320;48.860;2.380;2022-09-01T06:53:51;24.20;60.00
4209;DHT22;36320;48.860;2.380;2022-09-01T06:56:29;24.10;59.80
4209;DHT22;36320;48.860;2.380;2022-09-01T06:58:56;24.10;60.00
4209;DHT22;36320;48.860;2.380;2022-09-01T07:01:25;24.10;60.00
4209;DHT22;36320;48.860;2.380;2022-09-01T07:03:53;24.10;60.10
4209;DHT22;36320;48.860;2.380;2022-09-01T07:06:21;24.20;60.00
4209;DHT22;36320;48.860;2.380;2022-09-01T07:08:51;24.30;60.00
4209;DHT22;36320;48.860;2.380;2022-09-01T07:11:22;24.40;59.80
4209;DHT22;36320;48.860;2.380;2022-09-01T07:13:51;24.50;59.70
4209;DHT22;36320;48.860;2.380;2022-09-01T07:16:22;24.50;59.50
4209;DHT22;36320;48.860;2.380;2022-09-01T07:18:49;24.60;59.40
4209;DHT22;36320;48.860;2.380;2022-09-01T07:21:16;24.70;59.40
4209;DHT22;36320;48.860;2.380;2022-09-01T07:23:42;24.60;59.30
4209;DHT22;36320;48.860;2.380;2022-09-01T07:26:09;24.60;59.30
4209;DHT22;36320;48.860;2.380;2022-09-01T07:28:35;24.70;59.30
4209;DHT22;36320;48.860;2.380;2022-09-01T07:31:01;24.60;59.20
4209;DHT22;36320;48.860;2.380;2022-09-01T07:33:30;24.70;59.20
4209;DHT22;36320;48.860;2.380;2022-09-01T07:35:56;24.70;59.30
4209;DHT22;36320;48.860;2.380;2022-09-01T07:38:23;24.60;59.10
4209;DHT22;36320;48.860;2.380;2022-09-01T07:40:58;24.50;59.30
4209;DHT22;36320;48.860;2.380;2022-09-01T07:43:25;24.40;59.20
4209;DHT22;36320;48.860;2.380;2022-09-01T07:45:55;24.50;59.40
4209;DHT22;36320;48.860;2.380;2022-09-01T07:48:25;24.40;59.40
4209;DHT22;36320;48.860;2.380;2022-09-01T07:50:54;24.50;59.50
4209;DHT22;36320;48.860;2.380;2022-09-01T07:53:30;24.50;60.00
4209;DHT22;36320;48.860;2.380;2022-09-01T07:55:59;24.60;59.40
4209;DHT22;36320;48.860;2.380;2022-09-01T07:58:27;24.70;59.30
4209;DHT22;36320;48.860;2.380;2022-09-01T08:00:54;24.80;59.20
4209;DHT22;36320;48.860;2.380;2022-09-01T08:03:24;24.90;59.00
4209;DHT22;36320;48.860;2.380;2022-09-01T08:05:50;24.90;58.90
4209;DHT22;36320;48.860;2.380;2022-09-01T08:08:22;24.90;58.90
4209;DHT22;36320;48.860;2.380;2022-09-01T08:10:48;24.40;58.50
4209;DHT22;36320;48.860;2.380;2022-09-01T08:13:15;24.90;58.80
4209;DHT22;36320;48.860;2.380;2022-09-01T08:15:42;25.00;58.70
4209;DHT22;36320;48.860;2.380;2022-09-01T08:18:08;25.10;58.40
4209;DHT22;36320;48.860;2.380;2022-09-01T08:20:37;25.20;58.30
4209;DHT22;36320;48.860;2.380;2022-09-01T08:23:05;25.30;58.00
4209;DHT22;36320;48.860;2.380;2022-09-01T08:25:33;25.30;57.90
4209;DHT22;36320;48.860;2.380;2022-09-01T08:28:01;25.30;57.90
4209;DHT22;36320;48.860;2.380;2022-09-01T08:30:28;25.40;57.70
4209;DHT22;36320;48.860;2.380;2022-09-01T08:32:54;25.40;57.70
4209;DHT22;36320;48.860;2.380;2022-09-01T08:35:20;25.40;57.70
4209;DHT22;36320;48.860;2.380;2022-09-01T08:37:46;25.30;57.50
4209;DHT22;36320;48.860;2.380;2022-09-01T08:40:16;25.20;57.60
4209;DHT22;36320;48.860;2.380;2022-09-01T08:45:42;25.20;57.80
4209;DHT22;36320;48.860;2.380;2022-09-01T08:48:25;25.30;57.70
4209;DHT22;36320;48.860;2.380;2022-09-01T08:51:05;25.50;57.60
4209;DHT22;36320;48.860;2.380;2022-09-01T08:53:44;25.60;57.30
4209;DHT22;36320;48.860;2.380;2022-09-01T08:56:13;25.70;57.10
4209;DHT22;36320;48.860;2.380;2022-09-01T08:58:39;25.80;56.90
4209;DHT22;36320;48.860;2.380;2022-09-01T09:01:22;25.90;56.60
4209;DHT22;36320;48.860;2.380;2022-09-01T09:09:40;26.00;56.30
4209;DHT22;36320;48.860;2.380;2022-09-01T09:12:26;26.00;56.10
4209;DHT22;36320;48.860;2.380;2022-09-01T09:16:05;26.00;56.10
4209;DHT22;36320;48.860;2.380;2022-09-01T09:21:24;26.00;56.10
4209;DHT22;36320;48.860;2.380;2022-09-01T09:27:21;26.20;55.90
4209;DHT22;36320;48.860;2.380;2022-09-01T09:29:55;26.30;55.60
4209;DHT22;36320;48.860;2.380;2022-09-01T09:32:24;26.40;55.60
4209;DHT22;36320;48.860;2.380;2022-09-01T09:35:23;26.50;55.50
4209;DHT22;36320;48.860;2.380;2022-09-01T09:37:49;26.60;55.20
4209;DHT22;36320;48.860;2.380;2022-09-01T09:40:19;26.40;55.00
4209;DHT22;36320;48.860;2.380;2022-09-01T09:45:29;26.60;54.80
4209;DHT22;36320;48.860;2.380;2022-09-01T09:47:59;26.50;54.80
4209;DHT22;36320;48.860;2.380;2022-09-01T09:50:28;26.40;54.70
4209;DHT22;36320;48.860;2.380;2022-09-01T09:56:15;26.70;54.30
4209;DHT22;36320;48.860;2.380;2022-09-01T09:58:44;26.70;54.30
4209;DHT22;36320;48.860;2.380;2022-09-01T10:03:52;26.80;54.20
4209;DHT22;36320;48.860;2.380;2022-09-01T10:06:43;26.80;54.00
4209;DHT22;36320;48.860;2.380;2022-09-01T10:11:55;27.00;53.70
4209;DHT22;36320;48.860;2.380;2022-09-01T10:14:28;27.00;53.60
4209;DHT22;36320;48.860;2.380;2022-09-01T10:17:02;27.00;53.60
4209;DHT22;36320;48.860;2.380;2022-09-01T10:19:32;27.10;53.30
4209;DHT22;36320;48.860;2.380;2022-09-01T10:22:01;27.10;53.30
4209;DHT22;36320;48.860;2.380;2022-09-01T10:24:35;27.20;53.40
4209;DHT22;36320;48.860;2.380;2022-09-01T10:27:30;27.10;53.20
4209;DHT22;36320;48.860;2.380;2022-09-01T10:30:10;27.20;53.30
4209;DHT22;36320;48.860;2.380;2022-09-01T10:32:53;27.40;53.20
4209;DHT22;36320;48.860;2.380;2022-09-01T10:35:30;27.60;52.90
4209;DHT22;36320;48.860;2.380;2022-09-01T10:38:02;27.80;52.30
4209;DHT22;36320;48.860;2.380;2022-09-01T10:48:53;28.10;51.50
4209;DHT22;36320;48.860;2.380;2022-09-01T10:53:50;28.20;51.10
4209;DHT22;36320;48.860;2.380;2022-09-01T10:56:45;28.20;51.10
4209;DHT22;36320;48.860;2.380;2022-09-01T11:14:21;29.20;48.90
4209;DHT22;36320;48.860;2.380;2022-09-01T11:20:06;29.20;48.20
4209;DHT22;36320;48.860;2.380;2022-09-01T11:22:45;29.20;47.90
4209;DHT22;36320;48.860;2.380;2022-09-01T11:25:42;29.10;47.90
4209;DHT22;36320;48.860;2.380;2022-09-01T11:33:46;29.00;47.30
4209;DHT22;36320;48.860;2.380;2022-09-01T11:36:15;29.00;47.60
4209;DHT22;36320;48.860;2.380;2022-09-01T11:44:47;29.20;45.60
4209;DHT22;36320;48.860;2.380;2022-09-01T11:47:16;29.20;45.30
4209;DHT22;36320;48.860;2.380;2022-09-01T11:50:00;29.40;44.90
4209;DHT22;36320;48.860;2.380;2022-09-01T11:52:30;29.60;44.60
4209;DHT22;36320;48.860;2.380;2022-09-01T11:54:57;29.90;44.10
4209;DHT22;36320;48.860;2.380;2022-09-01T11:59:50;30.40;43.20
4209;DHT22;36320;48.860;2.380;2022-09-01T12:02:28;30.50;42.90
4209;DHT22;36320;48.860;2.380;2022-09-01T12:04:56;30.50;42.80
4209;DHT22;36320;48.860;2.380;2022-09-01T12:07:41;30.50;42.80
4209;DHT22;36320;48.860;2.380;2022-09-01T12:10:32;30.40;42.60
4209;DHT22;36320;48.860;2.380;2022-09-01T12:13:10;30.00;42.20
4209;DHT22;36320;48.860;2.380;2022-09-01T12:15:38;30.60;42.40
4209;DHT22;36320;48.860;2.380;2022-09-01T12:18:26;30.70;42.10
4209;DHT22;36320;48.860;2.380;2022-09-01T12:20:57;30.80;42.10
4209;DHT22;36320;48.860;2.380;2022-09-01T12:23:35;30.90;41.80
4209;DHT22;36320;48.860;2.380;2022-09-01T12:26:11;31.10;41.60
4209;DHT22;36320;48.860;2.380;2022-09-01T12:28:39;31.20;41.30
4209;DHT22;36320;48.860;2.380;2022-09-01T12:31:15;31.20;41.10
4209;DHT22;36320;48.860;2.380;2022-09-01T12:33:42;31.40;41.00
4209;DHT22;36320;48.860;2.380;2022-09-01T12:36:30;31.50;40.80
4209;DHT22;36320;48.860;2.380;2022-09-01T12:41:43;31.40;40.70
4209;DHT22;36320;48.860;2.380;2022-09-01T12:47:11;30.80;41.20
4209;DHT22;36320;48.860;2.380;2022-09-01T12:49:48;30.70;41.40
4209;DHT22;36320;48.860;2.380;2022-09-01T12:57:38;30.50;41.10
4209;DHT22;36320;48.860;2.380;2022-09-01T13:02:37;30.90;40.50
4209;DHT22;36320;48.860;2.380;2022-09-01T13:05:27;30.90;40.50
4209;DHT22;36320;48.860;2.380;2022-09-01T13:08:01;30.90;40.40
4209;DHT22;36320;48.860;2.380;2022-09-01T13:10:39;30.80;40.70
4209;DHT22;36320;48.860;2.380;2022-09-01T13:13:08;30.90;40.60
4209;DHT22;36320;48.860;2.380;2022-09-01T13:15:39;30.80;40.70
4209;DHT22;36320;48.860;2.380;2022-09-01T13:18:05;30.90;40.80
4209;DHT22;36320;48.860;2.380;2022-09-01T13:20:31;31.10;40.60
4209;DHT22;36320;48.860;2.380;2022-09-01T13:22:57;31.10;40.60
4209;DHT22;36320;48.860;2.380;2022-09-01T13:25:24;30.90;40.80
4209;DHT22;36320;48.860;2.380;2022-09-01T13:27:50;30.80;41.10
4209;DHT22;36320;48.860;2.380;2022-09-01T13:30:19;30.80;41.20
4209;DHT22;36320;48.860;2.380;2022-09-01T13:32:46;31.10;41.90
4209;DHT22;36320;48.860;2.380;2022-09-01T13:35:18;31.30;40.90
4209;DHT22;36320;48.860;2.380;2022-09-01T13:37:45;31.30;40.70
4209;DHT22;36320;48.860;2.380;2022-09-01T13:40:13;31.40;40.70
4209;DHT22;36320;48.860;2.380;2022-09-01T13:42:50;31.40;40.60
4209;DHT22;36320;48.860;2.380;2022-09-01T13:45:20;31.10;40.60
4209;DHT22;36320;48.860;2.380;2022-09-01T13:47:47;31.00;40.70
4209;DHT22;36320;48.860;2.380;2022-09-01T13:50:16;31.20;40.50
4209;DHT22;36320;48.860;2.380;2022-09-01T13:52:45;31.40;40.30
4209;DHT22;36320;48.860;2.380;2022-09-01T13:55:14;31.60;40.20
4209;DHT22;36320;48.860;2.380;2022-09-01T13:57:40;31.70;39.80
4209;DHT22;36320;48.860;2.380;2022-09-01T14:00:12;31.70;39.50
4209;DHT22;36320;48.860;2.380;2022-09-01T14:02:42;31.70;39.40
4209;DHT22;36320;48.860;2.380;2022-09-01T14:05:16;31.60;39.50
4209;DHT22;36320;48.860;2.380;2022-09-01T14:07:42;31.50;39.40
4209;DHT22;36320;48.860;2.380;2022-09-01T14:10:08;31.30;39.50
4209;DHT22;36320;48.860;2.380;2022-09-01T14:12:34;31.30;39.60
4209;DHT22;36320;48.860;2.380;2022-09-01T14:15:00;31.40;39.50
4209;DHT22;36320;48.860;2.380;2022-09-01T14:17:26;31.40;39.10
4209;DHT22;36320;48.860;2.380;2022-09-01T14:19:54;31.40;39.10
4209;DHT22;36320;48.860;2.380;2022-09-01T14:22:21;31.30;39.00
4209;DHT22;36320;48.860;2.380;2022-09-01T14:24:47;31.30;38.90
4209;DHT22;36320;48.860;2.380;2022-09-01T14:27:14;31.40;38.70
4209;DHT22;36320;48.860;2.380;2022-09-01T14:29:40;31.60;38.30
4209;DHT22;36320;48.860;2.380;2022-09-01T14:32:06;31.70;37.90
4209;DHT22;36320;48.860;2.380;2022-09-01T14:34:33;31.90;37.80
4209;DHT22;36320;48.860;2.380;2022-09-01T14:37:00;32.10;37.60
4209;DHT22;36320;48.860;2.380;2022-09-01T14:39:26;32.10;37.50
4209;DHT22;36320;48.860;2.380;2022-09-01T14:41:52;32.20;37.20
4209;DHT22;36320;48.860;2.380;2022-09-01T14:44:19;32.30;36.90
4209;DHT22;36320;48.860;2.380;2022-09-01T14:46:45;32.40;36.70
4209;DHT22;36320;48.860;2.380;2022-09-01T14:49:13;32.50;36.40
4209;DHT22;36320;48.860;2.380;2022-09-01T14:51:41;32.70;36.00
4209;DHT22;36320;48.860;2.380;2022-09-01T14:54:07;32.70;35.90
4209;DHT22;36320;48.860;2.380;2022-09-01T14:56:33;32.50;36.00
4209;DHT22;36320;48.860;2.380;2022-09-01T14:59:17;32.10;36.30
4209;DHT22;36320;48.860;2.380;2022-09-01T15:01:44;32.00;36.60
4209;DHT22;36320;48.860;2.380;2022-09-01T15:04:10;31.80;36.60
4209;DHT22;36320;48.860;2.380;2022-09-01T15:06:36;31.80;36.70
4209;DHT22;36320;48.860;2.380;2022-09-01T15:09:02;31.80;36.60
4209;DHT22;36320;48.860;2.380;2022-09-01T15:11:28;31.70;36.40
4209;DHT22;36320;48.860;2.380;2022-09-01T15:13:54;31.60;36.20
4209;DHT22;36320;48.860;2.380;2022-09-01T15:16:23;31.70;36.20
4209;DHT22;36320;48.860;2.380;2022-09-01T15:18:50;31.80;36.20
4209;DHT22;36320;48.860;2.380;2022-09-01T15:21:23;31.80;36.20
4209;DHT22;36320;48.860;2.380;2022-09-01T15:23:50;31.90;36.20
4209;DHT22;36320;48.860;2.380;2022-09-01T15:26:16;32.00;35.90
4209;DHT22;36320;48.860;2.380;2022-09-01T15:28:47;32.10;35.70
4209;DHT22;36320;48.860;2.380;2022-09-01T15:31:14;32.30;35.40
4209;DHT22;36320;48.860;2.380;2022-09-01T15:33:41;32.30;35.00
4209;DHT22;36320;48.860;2.380;2022-09-01T15:36:08;32.50;34.70
4209;DHT22;36320;48.860;2.380;2022-09-01T15:38:43;32.60;34.40
4209;DHT22;36320;48.860;2.380;2022-09-01T15:41:09;32.70;34.30
4209;DHT22;36320;48.860;2.380;2022-09-01T15:43:39;33.10;34.60
4209;DHT22;36320;48.860;2.380;2022-09-01T15:46:06;33.80;34.20
4209;DHT22;36320;48.860;2.380;2022-09-01T15:48:32;34.90;33.30
4209;DHT22;36320;48.860;2.380;2022-09-01T15:51:22;36.30;32.30
4209;DHT22;36320;48.860;2.380;2022-09-01T15:53:55;37.70;30.80
4209;DHT22;36320;48.860;2.380;2022-09-01T15:56:21;39.40;29.30
4209;DHT22;36320;48.860;2.380;2022-09-01T15:58:50;41.20;27.80
4209;DHT22;36320;48.860;2.380;2022-09-01T16:01:19;43.20;26.20
4209;DHT22;36320;48.860;2.380;2022-09-01T16:03:46;44.70;24.70
4209;DHT22;36320;48.860;2.380;2022-09-01T16:06:13;44.60;24.10
4209;DHT22;36320;48.860;2.380;2022-09-01T16:08:40;45.10;23.90
4209;DHT22;36320;48.860;2.380;2022-09-01T16:11:07;45.60;23.40
4209;DHT22;36320;48.860;2.380;2022-09-01T16:13:35;46.40;23.00
4209;DHT22;36320;48.860;2.380;2022-09-01T16:18:40;45.00;22.40
4209;DHT22;36320;48.860;2.380;2022-09-01T16:21:34;41.10;24.30
4209;DHT22;36320;48.860;2.380;2022-09-01T16:24:07;38.90;26.10
4209;DHT22;36320;48.860;2.380;2022-09-01T16:26:35;36.90;27.90
4209;DHT22;36320;48.860;2.380;2022-09-01T16:29:07;35.60;28.60
4209;DHT22;36320;48.860;2.380;2022-09-01T16:31:36;34.40;29.40
4209;DHT22;36320;48.860;2.380;2022-09-01T16:34:13;33.90;30.10
4209;DHT22;36320;48.860;2.380;2022-09-01T16:36:57;34.10;30.40
4209;DHT22;36320;48.860;2.380;2022-09-01T16:45:01;39.30;27.50
4209;DHT22;36320;48.860;2.380;2022-09-01T16:50:34;39.00;26.40
4209;DHT22;36320;48.860;2.380;2022-09-01T17:06:30;33.50;30.40
4209;DHT22;36320;48.860;2.380;2022-09-01T17:09:18;32.90;31.40
4209;DHT22;36320;48.860;2.380;2022-09-01T17:11:52;32.40;32.10
4209;DHT22;36320;48.860;2.380;2022-09-01T17:14:36;32.00;32.80
4209;DHT22;36320;48.860;2.380;2022-09-01T17:17:11;31.70;33.20
4209;DHT22;36320;48.860;2.380;2022-09-01T17:19:39;31.60;33.50
4209;DHT22;36320;48.860;2.380;2022-09-01T17:22:09;31.40;33.70
4209;DHT22;36320;48.860;2.380;2022-09-01T17:24:43;30.90;33.80
4209;DHT22;36320;48.860;2.380;2022-09-01T17:29:49;30.80;34.60
4209;DHT22;36320;48.860;2.380;2022-09-01T17:37:59;30.40;35.30
4209;DHT22;36320;48.860;2.380;2022-09-01T17:46:21;30.00;35.90
4209;DHT22;36320;48.860;2.380;2022-09-01T17:57:19;29.60;36.70
4209;DHT22;36320;48.860;2.380;2022-09-01T18:05:19;29.20;36.90
4209;DHT22;36320;48.860;2.380;2022-09-01T18:07:50;29.20;37.10
4209;DHT22;36320;48.860;2.380;2022-09-01T18:13:29;29.00;37.30
4209;DHT22;36320;48.860;2.380;2022-09-01T18:15:57;29.00;37.40
4209;DHT22;36320;48.860;2.380;2022-09-01T18:21:16;28.90;37.60
4209;DHT22;36320;48.860;2.380;2022-09-01T18:23:44;28.80;37.70
4209;DHT22;36320;48.860;2.380;2022-09-01T18:26:33;28.70;37.80
4209;DHT22;36320;48.860;2.380;2022-09-01T18:29:02;28.20;37.60
4209;DHT22;36320;48.860;2.380;2022-09-01T18:35:02;28.60;38.30
4209;DHT22;36320;48.860;2.380;2022-09-01T18:44:03;28.50;38.90
4209;DHT22;36320;48.860;2.380;2022-09-01T18:49:30;28.30;39.20